RJKB(METAR)
06/26 18:00
RJKB 260900Z 17021KT 7000 RA FEW015 SCT040 BKN045 26/25 Q1004 RMK
A2967=
戻る
トップページへ戻る
IMOC Co,.Ltd.